Nearby METAR Reports

 

KBGR - Bangor, Maine, USA
Distance from station: E 5mi, 8km
Updated: Sun, 19-May-2019 7:53pm EDT
Overcast
Overcast
 Wind from SE
Wind: SE 5 mph , 7 km/h
Temperature: 50°F , 10°C
Wind Chill: 48°F , 9°C
Dew Point: 46°F , 8°C
Humidity: 88%
Barometer: 30.01 inHg , 1016.3 hPa
Clouds: Overcast
Visibility: 10 miles , 16 km
Cloud details: Overcast 1000 ft
2019/05/19 23:53 KBGR 192353Z 14004KT 10SM OVC010 10/08 A3001 RMK AO2 SLP163 60004 T01000083 10106 20100 55003
KBHB - Bar Harbor, Maine, USA
Distance from station: SE 37mi, 59km
Updated: Sun, 19-May-2019 7:56pm EDT
Overcast
Overcast
 Wind from SSE
Wind: SSE 6 mph , 9 km/h
Temperature: 48°F , 9°C
Wind Chill: 45°F , 7°C
Dew Point: 45°F , 7°C
Humidity: 87%
Barometer: 30.04 inHg , 1017.3 hPa
Clouds: Overcast
Visibility: 10 miles , 16 km
Cloud details: Few Clouds 1700 ft
Overcast 2400 ft
2019/05/19 23:56 KBHB 192356Z AUTO 16005KT 10SM FEW017 OVC024 09/07 A3004 RMK AO2 SLP175 60002 T00890067 10100 20089 401220050 55006 $
 
KWVL - Waterville, Maine, USA
Distance from station: WSW 42mi, 68km
Updated: Sun, 19-May-2019 7:56pm EDT
Overcast
Overcast
 Wind from calm
Wind: Calm
Temperature: 54°F , 12°C
Dew Point: 48°F , 9°C
Humidity: 82%
Barometer: 29.96 inHg , 1014.6 hPa
Clouds: Overcast
Visibility: 10 miles , 16 km
Cloud details: Overcast 1900 ft
2019/05/19 23:56 KWVL 192356Z AUTO 00000KT 10SM OVC019 12/09 A2996 RMK AO2 SLP174 T01220094 10139 20106 56001
KRKD - Rockland/Knox, Maine, USA
Distance from station: S 52mi, 84km
Updated: Sun, 19-May-2019 7:56pm EDT
Overcast
Overcast
 Wind from E
Wind: E 5 mph , 7 km/h
Temperature: 48°F , 9°C
Wind Chill: 46°F , 8°C
Dew Point: 45°F , 7°C
Humidity: 87%
Barometer: 30.01 inHg , 1016.3 hPa
Clouds: Overcast
Visibility: 10 miles , 16 km
Cloud details: Overcast 2500 ft
2019/05/19 23:56 KRKD 192356Z AUTO 08004KT 10SM OVC025 09/07 A3001 RMK AO2 SLP164 T00890067 10106 20089 51002
 
KAUG - Augusta, Maine, USA
Distance from station: SW 55mi, 89km
Updated: Sun, 19-May-2019 7:53pm EDT
Clear
Clear
 Wind from SE
Wind: SE 5 mph , 7 km/h
Temperature: 55°F , 13°C
Dew Point: 50°F , 10°C
Humidity: 82%
Barometer: 29.98 inHg , 1015.2 hPa
Clouds: Clear
Visibility: 10 miles , 16 km
2019/05/19 23:53 KAUG 192353Z AUTO 13004KT 10SM CLR 13/10 A2998 RMK AO2 SLP153 T01330100 10161 20111 55001
KGNR - Greenville, Maine, USA
Distance from station: NW 55mi, 89km
Updated: Sun, 19-May-2019 7:56pm EDT

 Wind from SE
Wind: SE 6 mph , 9 km/h
Temperature: 46°F , 8°C
Wind Chill: 43°F , 6°C
Dew Point: 45°F , 7°C
Humidity: 93%
Barometer: 29.96 inHg , 1014.6 hPa
2019/05/19 23:56 KGNR 192356Z AUTO 13005KT 08/07 A2996 RMK AO1 SLP154 T00780072 10083 20078 56007
 
KMLT - Millinocket, Maine, USA
Distance from station: N 59mi, 95km
Updated: Sun, 19-May-2019 7:53pm EDT
Mist, Overcast
Mist, Overcast
 Wind from calm
Wind: Calm
Temperature: 50°F , 10°C
Dew Point: 46°F , 8°C
Humidity: 88%
Barometer: 30.03 inHg , 1016.9 hPa
Summary: Mist
Clouds: Overcast
Visibility: 6 miles , 10 km
Cloud details: Overcast 800 ft
2019/05/19 23:53 KMLT 192353Z AUTO 00000KT 6SM BR OVC008 10/08 A3003 RMK AO2 SLP175 60006 T01000083 10111 20100 55003
KIWI - Wiscasset, Maine, USA
Distance from station: SW 70mi, 113km
Updated: Sun, 19-May-2019 7:53pm EDT
Clear
Clear
 Wind from E
Wind: E 3 mph , 6 km/h
Temperature: 52°F , 11°C
Dew Point: 48°F , 9°C
Humidity: 88%
Barometer: 29.99 inHg , 1015.6 hPa
Clouds: Clear
Visibility: 10 miles , 16 km
2019/05/19 23:53 KIWI 192353Z AUTO 10003KT 10SM CLR 11/09 A2999 RMK AO2 SLP155 T01110089 10144 20111 56005
 
CWSS - St. Stephen (mar, New Brunswick, Canada
Distance from station: ENE 86mi, 138km
Updated: Sun, 19-May-2019 8:00pm EDT

 Wind from ESE
Wind: ESE 7 mph , 11 km/h
Temperature: 46°F , 8°C
Wind Chill: 42°F , 6°C
Dew Point: 45°F , 7°C
Humidity: 93%
2019/05/20 00:00 CWSS 200000Z AUTO 11006KT 08/07 RMK AO1 5007 SLP180 T00760073 50014
KLEW - Auburn/Lewiston, Maine, USA
Distance from station: SW 86mi, 138km
Updated: Sun, 19-May-2019 7:56pm EDT
Few Clouds
Few Clouds
 Wind from E
Wind: E 6 mph , 9 km/h
Temperature: 57°F , 14°C
Dew Point: 52°F , 11°C
Humidity: 82%
Barometer: 29.95 inHg , 1014.2 hPa
Clouds: Few Clouds
Visibility: 10 miles , 16 km
Cloud details: Few Clouds 11000 ft
2019/05/19 23:56 KLEW 192356Z AUTO 10005KT 10SM FEW110 14/11 A2995 RMK AO2 SLP159 T01440106 10172 20144 55002
 
KHUL - Houlton, Maine, USA
Distance from station: NNE 105mi, 169km
Updated: Sun, 19-May-2019 8:37pm EDT
Mist, Overcast
Mist, Overcast
 Wind from SE
Wind: SE 5 mph , 7 km/h
Temperature: 48°F , 9°C
Wind Chill: 46°F , 8°C
Dew Point: 46°F , 8°C
Humidity: 94%
Barometer: 30.03 inHg , 1016.9 hPa
Summary: Mist
Clouds: Overcast
Visibility: 5 miles , 8 km
Cloud details: Few Clouds 800 ft
Mostly cloudy 1400 ft
Overcast 2000 ft
2019/05/20 00:37 KHUL 200037Z AUTO 13004KT 5SM BR FEW008 BKN014 OVC020 09/08 A3003 RMK AO2 T00940078
KPWM - Portland, Maine, USA
Distance from station: SW 105mi, 170km
Updated: Sun, 19-May-2019 7:51pm EDT
Partly cloudy
Partly cloudy
 Wind from calm
Wind: Calm
Temperature: 54°F , 12°C
Dew Point: 48°F , 9°C
Humidity: 82%
Barometer: 29.95 inHg , 1014.2 hPa
Clouds: Partly cloudy
Visibility: 10 miles , 16 km
Cloud details: Partly cloudy 20000 ft
2019/05/19 23:51 KPWM 192351Z 00000KT 10SM SCT200 12/09 A2995 RMK AO2 SLP142 T01220089 10167 20122 55001
 
KBML - Berlin, New Hampshire, USA
Distance from station: W 113mi, 181km
Updated: Sun, 19-May-2019 8:05pm EDT
Light rain, Mist, Mostly cloudy
Light rain, Mist, Mostly cloudy
 Wind from calm
Wind: Calm
Temperature: 55°F , 13°C
Dew Point: 52°F , 11°C
Humidity: 88%
Barometer: 29.91 inHg , 1012.9 hPa
Summary: Light rain, Mist
Clouds: Mostly cloudy
Visibility: 6 miles , 10 km
Cloud details: Few Clouds 3800 ft
Partly cloudy 5000 ft
Mostly cloudy 7000 ft
2019/05/20 00:05 KBML 200005Z AUTO 00000KT 6SM -RA BR FEW038 SCT050 BKN070 13/11 A2991 RMK AO2 P0001 T01280111
KIZG - Fryeburg, Maine, USA
Distance from station: WSW 116mi, 186km
Updated: Sun, 19-May-2019 8:34pm EDT
Nearby thunderstorm, Rain, Overcast
Nearby thunderstorm, Rain, Overcast
 Wind from varies
Wind: varies 3 mph , 6 km/h
Temperature: 59°F , 15°C
Dew Point: 55°F , 13°C
Humidity: 88%
Barometer: 29.95 inHg , 1014.2 hPa
Summary: Nearby thunderstorm, Rain
Clouds: Overcast
Visibility: 7 miles , 11 km
Cloud details: Few Clouds 3400 ft
Mostly cloudy 8000 ft
Overcast 10000 ft
2019/05/20 00:34 KIZG 200034Z AUTO VRB03KT 7SM VCTS RA FEW034 BKN080 OVC100 15/13 A2995 RMK AO2 P0004 T01500133
 
CWPE - Point Lepreau, New Brunswick, Canada
Distance from station: E 121mi, 195km
Updated: Sun, 19-May-2019 8:00pm EDT

 Wind from E
Wind: E 6 mph , 9 km/h
Temperature: 45°F , 7°C
Wind Chill: 42°F , 6°C
Dew Point: 43°F , 6°C
Humidity: 93%
2019/05/20 00:00 CWPE 200000Z AUTO 10005KT 07/06 RMK AO1 5PAST HR 6013 SLP189 P0002 T00680055 50017
KMWN - Mount Washington, New Hampshire, USA
Distance from station: WSW 123mi, 198km
Updated: Sun, 19-May-2019 7:53pm EDT
Light rain, Fog, Overcast
Light rain, Fog, Overcast
 Wind from WSW
Wind: WSW 35 mph , 56 km/h, Gust: 52 mph , 83 km/h
Temperature: 50°F , 10°C
Wind Chill: 41°F , 5°C
Dew Point: 50°F , 10°C
Humidity: 100%
Summary: Light rain, Fog
Clouds: Overcast
Visibility: 0 miles , 0 km
Cloud details: Overcast 0 ft
2019/05/19 23:53 KMWN 192353Z 25030G45KT 0SM -RA FG VV000 10/10 RMK 60028 10103 20081
 
KPQI - Presque Isle, Maine, USA
Distance from station: ESE 136mi, 219km
Updated: Sun, 19-May-2019 7:56pm EDT
Light rain, Overcast
Light rain, Overcast
 Wind from SE
Wind: SE 5 mph , 7 km/h
Temperature: 48°F , 9°C
Wind Chill: 46°F , 8°C
Dew Point: 46°F , 8°C
Humidity: 94%
Barometer: 30.03 inHg , 1016.9 hPa
Summary: Light rain
Clouds: Overcast
Visibility: 10 miles , 16 km
Cloud details: Mostly cloudy 4700 ft
Mostly cloudy 7000 ft
Overcast 10000 ft
2019/05/19 23:56 KPQI 192356Z AUTO 14004KT 10SM -RA BKN047 BKN070 OVC100 09/08 A3003 RMK AO2 RAB03E29B46 SLP195 P0000 60000 T00940083 10128 20094 58012
KCAR - Caribou, Maine, USA
Distance from station: NNE 148mi, 238km
Updated: Sun, 19-May-2019 7:54pm EDT
Light rain, Overcast
Light rain, Overcast
 Wind from SE
Wind: SE 5 mph , 7 km/h
Temperature: 50°F , 10°C
Wind Chill: 48°F , 9°C
Dew Point: 45°F , 7°C
Humidity: 82%
Barometer: 30.01 inHg , 1016.3 hPa
Summary: Light rain
Clouds: Overcast
Visibility: 10 miles , 16 km
Cloud details: Partly cloudy 4800 ft
Partly cloudy 7500 ft
Overcast 10000 ft
2019/05/19 23:54 KCAR 192354Z AUTO 14004KT 10SM -RA SCT048 SCT075 OVC100 10/07 A3001 RMK AO2 RAB08 SLP169 P0000 60000 T01000072 10139 20100 58011